CheckWX is a tool to help pilots better visualize weather data.  It is not intended as a substitute for an official pre-flight weather briefing.

08:15:47 UTC

KSCR METAR
Siler City Municipal Airport
Siler City, North Carolina, USA
Current

21 mins ago

KSCR 070755Z AUTO 00000KT 10SM CLR 20/20 A3007 RMK AO2 T02000197
Observed
Jul-7 @ 07:55 UTC
Visibility
10 SM
Flight Rules
VFR
Cloud Levels
  • Clear skies
Temperature
20°C / 68°F
Dewpoint
20°C / 68°F
Humidity
100%
Altimeter
30.07" Hg
Pressure
1018.32 hPa
Previous

41 mins ago

KSCR 070735Z AUTO 00000KT 10SM SCT010 20/20 A3007 RMK AO2 T02020198
Observed
Jul-7 @ 07:35 UTC
Visibility
10 SM
Flight Rules
VFR
Cloud Levels
  • Scattered at 1,000' AGL
Temperature
20°C / 68°F
Dewpoint
20°C / 68°F
Humidity
100%
Altimeter
30.07" Hg
Pressure
1018.32 hPa
Previous

1 hour ago

KSCR 070715Z AUTO 00000KT 10SM CLR 20/20 A3007 RMK AO2 T02010196
Observed
Jul-7 @ 07:15 UTC
Visibility
10 SM
Flight Rules
VFR
Cloud Levels
  • Clear skies
Temperature
20°C / 68°F
Dewpoint
20°C / 68°F
Humidity
100%
Altimeter
30.07" Hg
Pressure
1018.32 hPa